^^
Paulen-Weather Station Historical Data
Daily Summary for July 27, 2022 Units:  Metric    English   Both
Daily Weekly Monthly Yearly Custom
  High: Low: Average:
Temperature: 14 °C 14 °C 14 °C
Dew Point: 9 °C 9 °C 9 °C
Humidity: 74% 72% 73%
Wind Speed: 24km/h 12km/h 17.6km/h
Wind Gust: 23km/h - -
Wind- - NW
Pressure: 1007.48 hPa 1006.94 hPa -
Precipitation: 0 mm    
Historical Graphs
 
 
Tabular Data for July 27, 2022
Time Temperature Dew Point Pressure Wind Wind Speed Wind Gust Humidity Rainfall Rate (Hourly) solar
00:04 14 °C 9 °C 1006.94 hPa WNW 17 km/h 15 km/h 73% 0 mm 0 W/m2
00:09 14 °C 9 °C 1006.94 hPa WNW 12 km/h 10 km/h 73% 0 mm 0 W/m2
00:14 14 °C 9 °C 1006.98 hPa NW 20 km/h 18 km/h 73% 0 mm 0 W/m2
00:19 14 °C 9 °C 1007.04 hPa WNW 19 km/h 14 km/h 73% 0 mm 0 W/m2
00:24 14 °C 9 °C 1007.04 hPa NW 22 km/h 19 km/h 73% 0 mm 0 W/m2
00:29 14 °C 9 °C 1007.04 hPa NW 18 km/h 14 km/h 73% 0 mm 0 W/m2
00:34 14 °C 9 °C 1007.04 hPa NW 18 km/h 17 km/h 73% 0 mm 0 W/m2
00:39 14 °C 9 °C 1007.08 hPa NW 17 km/h 14 km/h 73% 0 mm 0 W/m2
00:44 14 °C 9 °C 1007.11 hPa NW 19 km/h 16 km/h 73% 0 mm 0 W/m2
00:49 14 °C 9 °C 1007.08 hPa WNW 17 km/h 15 km/h 72% 0 mm 0 W/m2
00:54 14 °C 9 °C 1007.11 hPa NW 12 km/h 11 km/h 73% 0 mm 0 W/m2
00:59 14 °C 9 °C 1007.11 hPa NW 17 km/h 14 km/h 73% 0 mm 0 W/m2
01:04 14 °C 9 °C 1007.11 hPa NW 21 km/h 19 km/h 73% 0 mm 0 W/m2
01:09 14 °C 9 °C 1007.15 hPa NW 19 km/h 15 km/h 73% 0 mm 0 W/m2
01:14 14 °C 9 °C 1007.21 hPa WNW 17 km/h 14 km/h 73% 0 mm 0 W/m2
01:19 14 °C 9 °C 1007.21 hPa NW 19 km/h 16 km/h 73% 0 mm 0 W/m2
01:24 14 °C 9 °C 1007.32 hPa NW 17 km/h 14 km/h 73% 0 mm 0 W/m2
01:29 14 °C 9 °C 1007.28 hPa NW 17 km/h 14 km/h 73% 0 mm 0 W/m2
01:34 14 °C 9 °C 1007.35 hPa NW 18 km/h 17 km/h 73% 0 mm 0 W/m2
01:39 14 °C 9 °C 1007.38 hPa NW 13 km/h 12 km/h 73% 0 mm 0 W/m2
01:44 14 °C 9 °C 1007.45 hPa NW 13 km/h 13 km/h 73% 0 mm 0 W/m2
01:49 14 °C 9 °C 1007.45 hPa NW 18 km/h 13 km/h 73% 0 mm 0 W/m2
01:54 14 °C 9 °C 1007.48 hPa NW 17 km/h 16 km/h 73% 0 mm 0 W/m2
01:59 14 °C 9 °C 1007.45 hPa NW 18 km/h 16 km/h 73% 0 mm 0 W/m2
02:04 14 °C 9 °C 1007.48 hPa NW 18 km/h 16 km/h 74% 0 mm 0 W/m2
02:09 14 °C 9 °C 1007.45 hPa NW 24 km/h 23 km/h 74% 0 mm 0 W/m2
Compliments of Weather Underground - 2 mb